Central City, Illinois
Current Conditions -  °F | °C
As of 6:35 AM on Sunday 23 Nov 2014 (Local Time) from KENL Reporting Station
Scattered Clouds Scattered Clouds  
Wind Chill: 52°   Ceiling: Unl
Heat Index: 52°   Visibility: 10mi
Dew Point: 44°   Wind: 12mph
Humidity: 75%   Direction: 150°SSE
Pressure: 29.78"   Gusts: 16mph
Location:  38.5134°N, 89.1673°W
Report Text: KENL 231235Z AUTO 15010G14KT 10SM SCT110 11/07 A2978 RMK AO2 T01110069
Loading
Personal Weather Stations






























Interactive Weather Map New forecast layout! Learn more

10-Day Weather Forecast

Advertisements
Track Severe Weather on mobile